Terminal Aerodrome Forecast
Issued by NWS

Home | Current Version | Previous Version | Text Only | Print | Product List | Glossary On
Versions: 1 2 3 4 5 6 7 8 9 10 11 12 13 14 15 16 17 18
766
FTUS43 KOAX 292329
TAFBFF
TAF
KBFF 292329Z 3000/3024 13009KT P6SM VCTS SCT040CB BKN080
      TEMPO 3000/3003 VRB25G35KT 1SM +TSRAGR OVC040CB
     FM300400 11005KT P6SM SCT100
     FM302000 14009KT P6SM SCT060=

USA.gov is the U.S. government's official web portal to all federal, state and local government web resources and services.